In Rescue
 
Open Full Screen Window  High Contrast Mode
Wind Gusting 00 knots
13
November 29, 2022 8:00 AM CST
Weather Information
Wind Direction
  270 °
Wind Speed
  13 kt (15 mph)
Wind Gust
  00 kt (0 mph)
Altimeter
29.73 in
Visibility
10 SM
Temperature
-02° C
28° F
Dewpoint
-07° C
19° F
Humidity
69%
1hr Rain Fall
00.00 in.
24hr Rain Fall
00.00 in.
Sky Condition
Overcast @ 5,500 ft
Broken @ 4,100 ft
Broken @ 3,400 ft
VFR

METAR KDYT 291400Z AUTO 27013KT 10SM BKN034 BKN041 OVC055 M02/M07 A2973 RMK AO2

FAA Disclaimer: The data displayed is for advisory purposes only and is not to be used for flight planning or operations.